Time;durP1;ratioP1;P1;durP2;ratioP2;P2;SDS_P1;SDS_P2;PMS_P1;PMS_P2;Temp;Humidity;BMP_temperature;BMP_pressure;BME280_temperature;BME280_humidity;BME280_pressure;Samples;Min_cycle;Max_cycle;Signal;HPM_P1;HPM_P2
2021/10/13 00:00:16;;;;;;;7.15;4.50;;;;;;;11.25;58.22;98518.84;5143337;27;20035;-95
2021/10/13 00:02:42;;;;;;;7.05;4.55;;;;;;;11.17;59.20;98515.56;5144520;27;20066;-93
2021/10/13 00:05:10;;;;;;;8.95;5.03;;;;;;;11.15;60.04;98536.94;5144945;27;20049;-96
2021/10/13 00:07:40;;;;;;;9.20;4.95;;;;;;;11.13;59.90;98533.47;5143894;27;20047;-94
2021/10/13 00:10:08;;;;;;;;;;;;;;;11.25;58.75;98545.47;5141038;27;20043;-94
2021/10/13 00:12:34;;;;;;;8.20;4.60;;;;;;;11.05;58.83;98523.06;5142320;27;19920;-94
2021/10/13 00:15:01;;;;;;;7.97;4.38;;;;;;;11.07;58.34;98515.91;5144029;27;20043;-94
2021/10/13 00:17:27;;;;;;;7.25;4.90;;;;;;;11.20;57.73;98505.72;5141187;27;20043;-94
2021/10/13 00:19:53;;;;;;;8.05;5.10;;;;;;;11.27;57.36;98512.56;5141146;27;20051;-93
2021/10/13 00:22:21;;;;;;;7.78;4.88;;;;;;;11.24;57.03;98507.34;5141939;28;20039;-93
2021/10/13 00:24:47;;;;;;;8.32;4.93;;;;;;;11.23;57.05;98505.63;5142024;27;20061;-94
2021/10/13 00:27:13;;;;;;;7.60;4.97;;;;;;;11.17;57.32;98497.84;5142088;27;20043;-94
2021/10/13 00:29:39;;;;;;;9.18;4.53;;;;;;;11.14;57.61;98499.72;5140296;28;20051;-95
2021/10/13 00:32:05;;;;;;;8.27;5.13;;;;;;;11.19;57.56;98514.63;5140101;27;20217;-93
2021/10/13 00:34:32;;;;;;;7.45;4.70;;;;;;;11.33;57.60;98540.78;5141590;27;20124;-94
2021/10/13 00:36:59;;;;;;;10.68;4.80;;;;;;;11.30;57.79;98528.44;5139293;27;20480;-92
2021/10/13 00:39:26;;;;;;;7.50;4.72;;;;;;;11.23;57.12;98510.06;5139491;27;20059;-93
2021/10/13 00:41:52;;;;;;;7.88;4.50;;;;;;;11.15;57.45;98502.34;5139834;27;20074;-95
2021/10/13 00:44:18;;;;;;;6.80;4.22;;;;;;;11.09;57.62;98491.91;5139946;27;20036;-94
2021/10/13 00:46:44;;;;;;;7.65;4.70;;;;;;;11.29;57.21;98521.38;5140336;27;20046;-95
2021/10/13 00:49:10;;;;;;;7.93;4.75;;;;;;;11.06;57.43;98495.53;5141438;28;20557;-94
2021/10/13 00:51:37;;;;;;;7.88;4.95;;;;;;;11.23;57.65;98520.69;5140584;27;20039;-94
2021/10/13 00:54:03;;;;;;;7.53;4.50;;;;;;;11.02;57.87;98507.19;5141153;27;20099;-94
2021/10/13 00:56:31;;;;;;;7.07;4.13;;;;;;;11.03;58.41;98513.38;5141958;27;20054;-94
2021/10/13 00:58:57;;;;;;;11.20;6.15;;;;;;;10.88;58.14;98489.00;5140523;27;20043;-93
2021/10/13 01:01:28;;;;;;;6.82;4.30;;;;;;;10.80;58.62;98485.75;5141711;28;20499;-94
2021/10/13 01:04:10;;;;;;;7.53;4.32;;;;;;;10.77;58.96;98496.47;5140495;28;20043;-93
2021/10/13 01:06:47;;;;;;;7.13;4.57;;;;;;;11.00;58.77;98524.16;5140871;27;20031;-93
2021/10/13 01:09:19;;;;;;;7.65;4.95;;;;;;;10.77;59.13;98496.47;5142659;27;20047;-93
2021/10/13 01:12:00;;;;;;;7.15;4.40;;;;;;;10.83;59.50;98528.22;5144720;27;20091;-94
2021/10/13 01:14:35;;;;;;;10.70;4.72;;;;;;;10.63;59.79;98496.06;5147220;27;20580;-93
2021/10/13 01:20:25;;;;;;;10.60;4.65;;;;;;;10.57;60.91;98515.72;5105804;27;20506;-92
2021/10/13 01:23:08;;;;;;;7.68;4.90;;;;;;;10.42;61.11;98500.25;5095212;28;20113;-92
2021/10/13 01:25:46;;;;;;;9.02;4.97;;;;;;;10.42;61.13;98506.44;5111628;28;20040;-94
2021/10/13 01:28:17;;;;;;;9.60;4.93;;;;;;;10.44;61.60;98509.94;5103808;28;20036;-94
2021/10/13 01:30:46;;;;;;;9.05;5.10;;;;;;;10.26;62.30;98506.00;5099382;28;20052;-93
2021/10/13 01:33:18;;;;;;;7.53;5.15;;;;;;;10.18;62.55;98501.84;5099082;28;20041;-93
2021/10/13 01:35:47;;;;;;;8.48;5.18;;;;;;;10.13;62.96;98501.97;5099082;28;20564;-95
2021/10/13 01:38:17;;;;;;;8.20;5.15;;;;;;;10.11;63.50;98514.44;5101971;28;20074;-96
2021/10/13 01:40:47;;;;;;;7.97;4.95;;;;;;;10.05;63.80;98512.81;5103526;28;20040;-94
2021/10/13 01:43:17;;;;;;;8.55;4.68;;;;;;;10.02;63.58;98502.28;5102377;28;20063;-93
2021/10/13 01:45:47;;;;;;;7.63;4.78;;;;;;;10.02;63.93;98504.94;5099346;28;20044;-94
2021/10/13 01:48:14;;;;;;;12.82;5.35;;;;;;;10.05;63.89;98515.47;5099260;28;20485;-94
2021/10/13 01:50:44;;;;;;;8.40;4.88;;;;;;;9.90;63.97;98491.16;5106299;28;20063;-93
2021/10/13 01:53:11;;;;;;;8.45;5.28;;;;;;;9.85;64.52;98489.50;5099693;28;20040;-93
2021/10/13 01:55:39;;;;;;;8.43;5.90;;;;;;;9.78;65.02;98493.25;5100460;28;20040;-92
2021/10/13 01:58:06;;;;;;;9.32;5.30;;;;;;;9.66;65.02;98481.19;5111481;28;20040;-93
2021/10/13 02:00:36;;;;;;;8.30;5.03;;;;;;;9.74;65.34;98502.22;5106160;28;20047;-95
2021/10/13 02:03:06;;;;;;;9.20;5.05;;;;;;;9.73;65.05;98516.38;5104663;28;20043;-95
2021/10/13 02:05:35;;;;;;;8.32;4.88;;;;;;;9.79;64.72;98518.00;5102112;28;20109;-92
2021/10/13 02:08:06;;;;;;;8.30;5.05;;;;;;;9.86;63.29;98501.84;5105180;28;20036;-94
2021/10/13 02:10:34;;;;;;;7.95;5.28;;;;;;;9.95;62.34;98483.91;5102112;28;20044;-93
2021/10/13 02:13:01;;;;;;;8.17;5.40;;;;;;;9.93;62.20;98478.66;5104624;28;20059;-95
2021/10/13 02:15:28;;;;;;;7.97;4.70;;;;;;;10.00;62.66;98493.50;5109104;28;20066;-93
2021/10/13 02:17:59;;;;;;;8.32;4.93;;;;;;;9.95;61.74;98489.22;5107970;28;20073;-94
2021/10/13 02:20:29;;;;;;;9.85;4.68;;;;;;;9.97;62.51;98476.78;5099636;28;20119;-93
2021/10/13 02:22:59;;;;;;;7.10;4.55;;;;;;;9.98;61.23;98483.84;5104072;28;20101;-92
2021/10/13 02:25:32;;;;;;;7.97;4.78;;;;;;;10.11;61.03;98494.97;5105001;28;20392;-94
2021/10/13 02:28:03;;;;;;;6.85;4.45;;;;;;;10.06;60.63;98482.69;5094391;28;20036;-94
2021/10/13 02:30:29;;;;;;;8.35;4.88;;;;;;;10.12;60.16;98486.06;5099310;28;20041;-94
2021/10/13 02:32:58;;;;;;;6.85;4.32;;;;;;;10.12;60.10;98480.75;5090222;28;20055;-90
2021/10/13 02:35:24;;;;;;;6.75;4.18;;;;;;;10.05;61.39;98494.22;5094902;28;20106;-94
2021/10/13 02:37:53;;;;;;;9.57;4.63;;;;;;;9.94;60.72;98482.19;5090463;28;20048;-94
2021/10/13 02:40:22;;;;;;;6.40;4.43;;;;;;;9.95;60.87;98486.56;5092271;28;20066;-92
2021/10/13 02:42:49;;;;;;;7.72;4.43;;;;;;;9.80;62.14;98480.81;5095440;28;20046;-93
2021/10/13 02:45:16;;;;;;;7.53;4.22;;;;;;;9.83;62.13;98496.63;5088938;28;20131;-92
2021/10/13 02:47:49;;;;;;;8.02;4.88;;;;;;;9.74;63.56;98504.00;5089600;28;20134;-94
2021/10/13 02:50:22;;;;;;;8.88;4.43;;;;;;;9.49;63.84;98491.38;5090600;28;20044;-91
2021/10/13 02:52:59;;;;;;;7.72;4.43;;;;;;;9.34;65.20;98489.16;5088634;28;20358;-92
2021/10/13 02:55:30;;;;;;;8.35;4.95;;;;;;;9.17;66.42;98477.22;5092883;28;20043;-92
2021/10/13 02:58:05;;;;;;;9.18;5.13;;;;;;;9.19;67.02;98512.50;5092736;28;20052;-92
2021/10/13 03:00:34;;;;;;;7.82;4.45;;;;;;;9.16;67.82;98509.94;5093311;28;20070;-92
2021/10/13 03:03:05;;;;;;;8.65;5.30;;;;;;;8.88;68.82;98480.59;5096132;28;20128;-93
2021/10/13 03:05:35;;;;;;;9.27;4.88;;;;;;;8.82;69.24;98483.41;5091753;28;20040;-93
2021/10/13 03:08:05;;;;;;;7.63;4.63;;;;;;;8.77;68.16;98480.00;5097916;28;20048;-92
2021/10/13 03:10:33;;;;;;;8.55;4.93;;;;;;;8.96;67.49;98497.19;5092194;28;20127;-94
2021/10/13 03:13:01;;;;;;;10.20;5.30;;;;;;;8.81;68.08;98489.63;5092772;28;20045;-92
2021/10/13 03:15:29;;;;;;;10.75;5.15;;;;;;;8.91;68.82;98519.41;5088957;28;20044;-93
2021/10/13 03:17:57;;;;;;;9.65;5.63;;;;;;;8.74;68.91;98506.56;5086414;28;20087;-93
2021/10/13 03:20:26;;;;;;;8.70;4.65;;;;;;;8.72;68.74;98496.00;5091056;28;20075;-94
2021/10/13 03:22:57;;;;;;;9.95;5.40;;;;;;;8.71;70.06;98515.47;5087594;28;20178;-93
2021/10/13 03:25:24;;;;;;;11.63;6.00;;;;;;;8.65;70.25;98518.25;5088256;28;20040;-94
2021/10/13 03:27:51;;;;;;;9.85;5.10;;;;;;;8.46;71.02;98499.28;5089462;28;20044;-92
2021/10/13 03:30:17;;;;;;;9.30;5.97;;;;;;;8.43;71.97;98517.88;5085558;28;20041;-94
2021/10/13 03:32:44;;;;;;;9.00;5.93;;;;;;;8.26;72.56;98507.63;5091210;28;20078;-94
2021/10/13 03:35:10;;;;;;;10.38;6.22;;;;;;;8.22;73.37;98511.25;5088077;28;20067;-93
2021/10/13 03:37:36;;;;;;;10.40;6.07;;;;;;;8.07;73.93;98498.31;5087334;28;20041;-94
2021/10/13 03:40:05;;;;;;;9.75;5.97;;;;;;;8.04;74.91;98504.56;5090466;28;20033;-93
2021/10/13 03:42:32;;;;;;;10.52;5.70;;;;;;;7.94;74.39;98495.97;5091335;28;20049;-93
2021/10/13 03:44:58;;;;;;;11.88;6.55;;;;;;;7.99;73.59;98490.56;5086549;28;20040;-93
2021/10/13 03:47:24;;;;;;;14.15;6.40;;;;;;;8.11;73.55;98502.66;5093532;28;20143;-93
2021/10/13 03:49:50;;;;;;;10.07;6.85;;;;;;;8.19;73.17;98503.38;5091587;28;20048;-93
2021/10/13 03:52:16;;;;;;;9.45;5.60;;;;;;;8.13;72.62;98498.19;5087016;28;20124;-92
2021/10/13 03:54:42;;;;;;;10.85;6.30;;;;;;;8.25;72.39;98523.56;5095812;28;20076;-93
2021/10/13 03:57:13;;;;;;;13.40;6.43;;;;;;;8.11;73.02;98500.00;5091002;28;20079;-93
2021/10/13 03:59:39;;;;;;;10.48;6.38;;;;;;;8.16;72.94;98511.38;5084773;28;20045;-92
2021/10/13 04:02:06;;;;;;;11.85;6.57;;;;;;;8.10;73.91;98512.38;5092782;28;20078;-91
2021/10/13 04:04:32;;;;;;;18.67;7.97;;;;;;;8.21;73.82;98533.34;5088582;28;20067;-93
2021/10/13 04:06:58;;;;;;;11.90;6.82;;;;;;;7.97;74.19;98514.41;5082815;28;20040;-94
2021/10/13 04:09:24;;;;;;;9.10;6.05;;;;;;;7.85;74.32;98509.38;5085601;28;20048;-92
2021/10/13 04:11:50;;;;;;;9.43;6.10;;;;;;;7.76;75.18;98517.50;5089218;28;20044;-94
2021/10/13 04:14:17;;;;;;;9.05;5.70;;;;;;;7.82;73.62;98512.09;5096503;28;20126;-92
2021/10/13 04:16:43;;;;;;;11.85;6.20;;;;;;;7.86;74.86;98529.66;5089385;28;20502;-92
2021/10/13 04:19:09;;;;;;;10.98;5.82;;;;;;;7.55;75.92;98501.16;5087240;28;20068;-94
2021/10/13 04:21:35;;;;;;;9.88;5.97;;;;;;;7.48;76.27;98499.53;5089469;28;20478;-92
2021/10/13 04:24:01;;;;;;;14.25;6.00;;;;;;;7.40;76.50;98493.50;5088175;28;20028;-94
2021/10/13 04:26:27;;;;;;;11.98;5.85;;;;;;;7.38;77.33;98512.03;5086117;28;20101;-93
2021/10/13 04:28:53;;;;;;;10.05;6.07;;;;;;;7.30;77.65;98507.78;5080441;28;20036;-93
2021/10/13 04:31:21;;;;;;;8.98;5.68;;;;;;;7.40;76.46;98512.00;5085234;28;20123;-93
2021/10/13 04:33:48;;;;;;;10.18;5.78;;;;;;;7.31;76.83;98497.19;5089856;28;20048;-92
2021/10/13 04:36:15;;;;;;;9.40;5.82;;;;;;;7.33;77.37;98511.25;5082903;28;20045;-91
2021/10/13 04:38:41;;;;;;;8.77;5.90;;;;;;;7.33;77.19;98513.00;5088514;28;20099;-92
2021/10/13 04:41:07;;;;;;;8.13;5.47;;;;;;;7.26;76.85;98500.81;5094773;28;20068;-93
2021/10/13 04:43:33;;;;;;;9.60;5.95;;;;;;;7.19;77.51;98500.91;5088293;28;20044;-93
2021/10/13 04:46:01;;;;;;;9.40;6.10;;;;;;;7.40;75.62;98502.31;5087329;28;20044;-94
2021/10/13 04:48:29;;;;;;;10.13;6.10;;;;;;;7.52;76.10;98526.78;5087533;28;20045;-93
2021/10/13 04:50:55;;;;;;;10.57;5.82;;;;;;;7.36;76.80;98499.75;5085876;28;20123;-94
2021/10/13 04:53:22;;;;;;;9.48;6.15;;;;;;;7.31;77.40;98494.53;5095263;28;20059;-94
2021/10/13 04:55:48;;;;;;;10.73;6.18;;;;;;;7.41;76.65;98511.97;5082303;28;20048;-95
2021/10/13 04:58:14;;;;;;;8.23;5.50;;;;;;;7.34;77.02;98507.69;5085685;28;20107;-93
2021/10/13 05:00:40;;;;;;;12.77;6.03;;;;;;;7.36;77.41;98532.34;5087377;28;20051;-93
2021/10/13 05:03:06;;;;;;;12.15;5.90;;;;;;;7.30;76.71;98521.88;5094436;28;20056;-93
2021/10/13 05:05:35;;;;;;;10.32;6.25;;;;;;;7.10;77.91;98505.50;5093026;28;20052;-95
2021/10/13 05:08:01;;;;;;;10.30;6.07;;;;;;;7.14;77.31;98513.34;5091064;28;20052;-93
2021/10/13 05:10:27;;;;;;;10.02;5.88;;;;;;;7.37;75.29;98505.03;5091059;28;20051;-94
2021/10/13 05:12:53;;;;;;;8.98;5.57;;;;;;;7.73;73.77;98514.91;5092289;28;20060;-95
2021/10/13 05:15:22;;;;;;;9.15;5.55;;;;;;;8.06;73.45;98552.22;5088380;28;20056;-93
2021/10/13 05:17:48;;;;;;;9.93;5.75;;;;;;;8.04;73.04;98517.81;5081911;28;20089;-94
2021/10/13 05:20:14;;;;;;;8.68;5.50;;;;;;;8.06;73.13;98523.06;5081958;28;20092;-94
2021/10/13 05:22:42;;;;;;;8.52;5.20;;;;;;;8.16;72.92;98528.16;5080534;28;20052;-94
2021/10/13 05:25:09;;;;;;;8.70;5.28;;;;;;;8.11;73.07;98521.19;5085073;28;20041;-94
2021/10/13 05:27:35;;;;;;;10.70;6.28;;;;;;;8.09;73.11;98521.25;5082720;28;20041;-94
2021/10/13 05:30:01;;;;;;;10.23;5.75;;;;;;;8.11;72.94;98510.59;5092661;28;20521;-94
2021/10/13 05:32:27;;;;;;;9.85;5.70;;;;;;;8.14;73.17;98529.94;5084942;28;20049;-96
2021/10/13 05:34:56;;;;;;;10.23;5.68;;;;;;;8.07;73.42;98531.00;5088833;28;20325;-95
2021/10/13 05:37:22;;;;;;;9.73;5.93;;;;;;;7.97;73.87;98517.06;5085631;28;20044;-94
2021/10/13 05:39:49;;;;;;;9.38;5.55;;;;;;;8.03;74.04;98534.59;5091762;28;20041;-95
2021/10/13 05:42:15;;;;;;;11.02;5.68;;;;;;;8.08;73.93;98535.38;5096162;28;20077;-93
2021/10/13 05:44:42;;;;;;;9.73;5.85;;;;;;;8.23;73.23;98536.84;5083324;28;20067;-94
2021/10/13 05:47:08;;;;;;;8.85;5.40;;;;;;;8.36;72.74;98537.44;5095253;28;20052;-95
2021/10/13 05:49:38;;;;;;;8.43;5.07;;;;;;;8.45;72.36;98531.09;5096047;28;20039;-94
2021/10/13 05:52:04;;;;;;;;;;;;;;;8.75;72.14;98574.59;5103842;28;20044;-94
2021/10/13 05:54:30;;;;;;;10.00;5.20;;;;;;;8.65;71.84;98544.75;5104552;28;20460;-92
2021/10/13 05:56:57;;;;;;;9.35;5.00;;;;;;;8.71;71.60;98541.09;5106487;28;20051;-95
2021/10/13 05:59:24;;;;;;;8.27;5.05;;;;;;;8.95;70.88;98552.91;5083930;28;20072;-95
2021/10/13 06:01:50;;;;;;;8.48;5.10;;;;;;;9.19;69.66;98535.50;5081210;28;20112;-94
2021/10/13 06:04:16;;;;;;;8.38;4.60;;;;;;;9.25;69.60;98535.38;5082876;28;20490;-95
2021/10/13 06:06:42;;;;;;;7.28;4.40;;;;;;;9.33;68.99;98541.34;5085323;28;20047;-94
2021/10/13 06:09:08;;;;;;;8.82;4.40;;;;;;;9.37;68.66;98545.69;5103325;28;20509;-93
2021/10/13 06:11:34;;;;;;;7.97;4.75;;;;;;;9.38;69.52;98549.19;5085323;28;20051;-94
2021/10/13 06:14:02;;;;;;;6.65;4.38;;;;;;;9.42;68.48;98540.25;5090463;28;20052;-94
2021/10/13 06:16:28;;;;;;;8.55;4.65;;;;;;;9.49;68.51;98554.22;5093652;28;20116;-94
2021/10/13 06:18:54;;;;;;;7.32;4.43;;;;;;;9.53;68.46;98564.72;5102737;28;20144;-94
2021/10/13 06:21:21;;;;;;;8.13;4.78;;;;;;;9.65;69.33;98588.31;5093220;28;20051;-95
2021/10/13 06:23:48;;;;;;;7.00;3.88;;;;;;;9.68;67.67;98559.94;5096321;28;20506;-95
2021/10/13 06:26:21;;;;;;;7.25;4.35;;;;;;;9.84;67.59;98561.25;5085081;28;20099;-95
2021/10/13 06:28:47;;;;;;;8.23;5.18;;;;;;;9.82;69.39;98587.84;5086879;28;20406;-95
2021/10/13 06:31:16;;;;;;;6.38;4.30;;;;;;;9.86;68.67;98605.44;5087883;28;20045;-94
2021/10/13 06:33:43;;;;;;;10.25;4.60;;;;;;;9.62;68.80;98580.41;5089440;28;20040;-95
2021/10/13 06:36:10;;;;;;;9.43;4.93;;;;;;;9.63;68.67;98589.25;5104978;28;20073;-93
2021/10/13 06:38:36;;;;;;;7.93;5.15;;;;;;;9.66;68.95;98589.16;5102758;28;20047;-95
2021/10/13 06:41:03;;;;;;;9.25;5.05;;;;;;;9.86;69.14;98624.03;5105039;28;20497;-95
2021/10/13 06:43:30;;;;;;;8.05;5.00;;;;;;;9.83;68.93;98605.53;5086452;28;20098;-94
2021/10/13 06:45:56;;;;;;;8.68;5.10;;;;;;;9.68;69.51;98579.38;5087048;28;20064;-95
2021/10/13 06:48:24;;;;;;;9.55;5.30;;;;;;;9.80;69.54;98595.00;5086073;28;20047;-94
2021/10/13 06:50:51;;;;;;;8.00;4.95;;;;;;;9.83;69.27;98586.94;5086777;28;20048;-95
2021/10/13 06:53:17;;;;;;;9.25;5.70;;;;;;;9.88;69.34;98594.78;5087794;28;20072;-95
2021/10/13 06:55:43;;;;;;;9.05;5.28;;;;;;;9.84;70.17;98596.63;5084785;28;20074;-93
2021/10/13 06:58:09;;;;;;;8.02;5.07;;;;;;;10.00;68.68;98599.75;5082592;28;20036;-95
2021/10/13 07:00:35;;;;;;;8.52;4.55;;;;;;;10.17;67.21;98585.13;5083509;28;20048;-95
2021/10/13 07:03:03;;;;;;;6.07;4.47;;;;;;;10.81;64.25;98604.53;5096730;28;20047;-93
2021/10/13 07:05:30;;;;;;;8.00;4.00;;;;;;;10.98;62.83;98584.50;5108803;28;20051;-95
2021/10/13 07:07:57;;;;;;;6.35;4.10;;;;;;;11.18;63.78;98582.06;5108711;28;20044;-96
2021/10/13 07:10:24;;;;;;;5.82;3.40;;;;;;;11.41;62.63;98604.44;5110474;28;20067;-96
2021/10/13 07:12:50;;;;;;;7.07;4.20;;;;;;;11.48;61.82;98582.00;5110206;28;20048;-95
2021/10/13 07:15:16;;;;;;;6.22;4.00;;;;;;;11.59;60.81;98593.13;5096153;28;20410;-96
2021/10/13 07:17:44;;;;;;;8.60;4.03;;;;;;;11.72;59.70;98599.78;5088426;28;20051;-95
2021/10/13 07:20:11;;;;;;;5.47;3.70;;;;;;;11.87;59.76;98594.84;5087729;28;20056;-96
2021/10/13 07:22:39;;;;;;;7.78;3.88;;;;;;;12.00;61.88;98598.84;5085360;28;20398;-95
2021/10/13 07:25:06;;;;;;;7.07;4.15;;;;;;;12.18;60.06;98596.44;5085175;28;20051;-95
2021/10/13 07:27:33;;;;;;;9.30;4.10;;;;;;;12.23;59.86;98590.03;5085124;28;20040;-96
2021/10/13 07:30:01;;;;;;;5.90;3.50;;;;;;;12.19;58.13;98584.84;5089214;28;20047;-96
2021/10/13 07:32:30;;;;;;;6.07;3.88;;;;;;;12.37;58.61;98594.00;5082856;28;20052;-96
2021/10/13 07:34:56;;;;;;;6.55;4.25;;;;;;;12.36;59.01;98606.47;5085449;28;20048;-95
2021/10/13 07:37:22;;;;;;;7.00;3.67;;;;;;;12.54;58.83;98599.56;5081936;28;20049;-96
2021/10/13 07:39:51;;;;;;;5.97;4.00;;;;;;;12.67;58.92;98600.84;5085397;28;20520;-95
2021/10/13 07:42:17;;;;;;;7.43;3.80;;;;;;;12.83;58.05;98601.09;5083519;28;20049;-95
2021/10/13 07:44:45;;;;;;;5.78;3.60;;;;;;;13.01;57.65;98620.88;5083017;28;20048;-94
2021/10/13 07:47:11;;;;;;;6.43;3.67;;;;;;;12.99;56.49;98596.06;5083512;28;20055;-96
2021/10/13 07:49:38;;;;;;;6.43;3.70;;;;;;;12.93;57.00;98607.81;5084266;28;20075;-96
2021/10/13 07:52:05;;;;;;;6.80;4.10;;;;;;;13.06;55.73;98602.00;5085135;28;20148;-96
2021/10/13 07:54:36;;;;;;;6.47;4.00;;;;;;;12.85;56.19;98607.25;5095034;28;20055;-95
2021/10/13 07:57:04;;;;;;;5.78;3.88;;;;;;;12.93;56.03;98604.28;5085929;28;20043;-95
2021/10/13 07:59:30;;;;;;;6.37;3.63;;;;;;;13.23;55.43;98638.69;5102853;28;20066;-95
2021/10/13 08:01:56;;;;;;;6.05;3.80;;;;;;;13.28;55.47;98610.91;5104542;28;20111;-95
2021/10/13 08:04:23;;;;;;;7.68;3.85;;;;;;;13.53;54.17;98617.91;5099976;28;20094;-95
2021/10/13 08:06:49;;;;;;;6.03;3.50;;;;;;;13.44;54.52;98618.31;5084749;28;20075;-95
2021/10/13 08:09:15;;;;;;;6.93;4.20;;;;;;;13.37;54.40;98627.50;5083417;28;20097;-95
2021/10/13 08:11:41;;;;;;;6.45;3.90;;;;;;;13.41;55.38;98631.78;5083190;28;20104;-94
2021/10/13 08:14:09;;;;;;;7.13;4.32;;;;;;;13.62;55.60;98665.66;5088113;28;20055;-95
2021/10/13 08:16:35;;;;;;;6.00;3.72;;;;;;;13.71;54.01;98621.66;5092245;28;20040;-95
2021/10/13 08:19:02;;;;;;;9.85;4.10;;;;;;;13.79;54.15;98634.66;5089068;28;20553;-96
2021/10/13 08:21:29;;;;;;;7.75;3.60;;;;;;;14.02;53.31;98633.69;5103032;28;20087;-95
2021/10/13 08:23:55;;;;;;;8.02;4.63;;;;;;;14.03;53.01;98624.72;5105400;28;20055;-95
2021/10/13 08:26:21;;;;;;;7.32;4.65;;;;;;;14.13;53.39;98636.75;5106583;28;20044;-94
2021/10/13 08:28:48;;;;;;;9.32;4.70;;;;;;;14.16;53.33;98617.91;5096255;28;20040;-96
2021/10/13 08:31:15;;;;;;;7.53;4.75;;;;;;;14.34;53.82;98621.59;5096314;28;20048;-96
2021/10/13 08:33:42;;;;;;;8.68;5.00;;;;;;;14.30;54.06;98628.88;5103853;28;20048;-96
2021/10/13 08:36:09;;;;;;;5.63;3.58;;;;;;;14.42;51.46;98624.78;5096924;28;20097;-96
2021/10/13 08:38:36;;;;;;;7.38;3.67;;;;;;;14.69;51.29;98659.28;5085384;28;20048;-95
2021/10/13 08:41:03;;;;;;;6.50;3.60;;;;;;;14.55;51.57;98643.84;5098477;28;20067;-95
2021/10/13 08:43:30;;;;;;;5.55;3.50;;;;;;;14.53;51.54;98629.63;5087219;28;20059;-96
2021/10/13 08:45:56;;;;;;;6.05;3.90;;;;;;;14.74;51.41;98659.94;5083932;28;20045;-95
2021/10/13 08:48:23;;;;;;;7.47;4.60;;;;;;;14.66;51.32;98632.66;5084122;28;20048;-96
2021/10/13 08:50:50;;;;;;;7.95;4.28;;;;;;;14.75;50.46;98634.94;5085014;28;20044;-96
2021/10/13 08:53:20;;;;;;;8.23;4.65;;;;;;;14.60;51.99;98639.16;5084730;28;20448;-96
2021/10/13 08:55:52;;;;;;;8.10;4.35;;;;;;;14.45;52.60;98635.34;5083194;28;20070;-95
2021/10/13 08:58:19;;;;;;;6.50;4.18;;;;;;;14.51;52.04;98648.44;5085010;28;20072;-94
2021/10/13 09:00:46;;;;;;;6.72;4.22;;;;;;;14.82;51.43;98646.22;5104884;28;20052;-96
2021/10/13 09:03:27;;;;;;;7.18;4.03;;;;;;;14.71;51.47;98636.88;5105172;28;20063;-95
2021/10/13 09:05:56;;;;;;;7.72;3.90;;;;;;;15.12;51.87;98657.31;5102480;28;20068;-95
2021/10/13 09:08:22;;;;;;;5.80;3.73;;;;;;;15.20;51.17;98642.59;5089549;28;20119;-96
2021/10/13 09:10:48;;;;;;;6.10;3.40;;;;;;;15.55;49.72;98661.44;5092546;28;20031;-93
2021/10/13 09:13:16;;;;;;;5.85;3.50;;;;;;;15.45;47.66;98636.03;5078572;28;20045;-96
2021/10/13 09:15:49;;;;;;;4.95;3.13;;;;;;;15.70;47.36;98662.50;5080884;28;20044;-95
2021/10/13 09:18:16;;;;;;;6.60;3.40;;;;;;;15.43;47.57;98645.09;5084332;28;20112;-95
2021/10/13 09:20:48;;;;;;;5.85;3.25;;;;;;;15.52;48.87;98647.31;5081787;28;20444;-95
2021/10/13 09:23:19;;;;;;;5.55;3.22;;;;;;;15.74;47.37;98660.56;5087001;28;20057;-95
2021/10/13 09:26:01;;;;;;;5.55;3.00;;;;;;;15.75;47.18;98636.38;5085435;28;20036;-96
2021/10/13 09:28:27;;;;;;;5.90;3.60;;;;;;;15.60;47.84;98629.91;5074273;28;20044;-95
2021/10/13 09:30:54;;;;;;;7.53;3.90;;;;;;;15.67;47.87;98632.31;5100676;28;20375;-95
2021/10/13 09:33:20;;;;;;;5.00;2.78;;;;;;;15.90;46.59;98642.78;5096017;28;20071;-95
2021/10/13 09:35:50;;;;;;;4.82;2.92;;;;;;;16.09;45.29;98647.19;5087722;28;20498;-95
2021/10/13 09:38:18;;;;;;;4.68;2.70;;;;;;;16.07;44.31;98632.97;5079059;28;20048;-96
2021/10/13 09:40:45;;;;;;;4.80;2.73;;;;;;;15.91;44.80;98646.31;5106336;28;20079;-95
2021/10/13 09:43:30;;;;;;;4.95;2.72;;;;;;;16.02;43.79;98646.63;5087560;28;20036;-95
2021/10/13 09:46:05;;;;;;;3.80;2.40;;;;;;;16.32;43.38;98656.72;5085671;28;20494;-96
2021/10/13 09:48:33;;;;;;;4.18;2.70;;;;;;;16.08;43.99;98646.31;5091048;28;20402;-96
2021/10/13 09:51:13;;;;;;;4.15;2.70;;;;;;;16.07;43.67;98632.97;5089246;28;20066;-96
2021/10/13 09:53:39;;;;;;;5.05;2.80;;;;;;;16.09;43.91;98636.44;5100967;28;20101;-96
2021/10/13 09:56:05;;;;;;;4.22;2.78;;;;;;;16.45;42.88;98667.69;5093514;28;20513;-95
2021/10/13 10:01:34;;;;;;;3.70;2.50;;;;;;;16.09;43.27;98642.69;5115146;27;20759;-94
2021/10/13 10:04:01;;;;;;;8.88;2.95;;;;;;;16.12;45.04;98645.22;5115746;28;20044;-96
2021/10/13 10:06:28;;;;;;;5.60;3.13;;;;;;;16.26;45.37;98665.94;5115491;28;20040;-94
2021/10/13 10:09:04;;;;;;;4.88;2.90;;;;;;;16.43;46.38;98674.00;5115816;28;20047;-95
2021/10/13 10:11:32;;;;;;;5.88;2.97;;;;;;;16.43;46.49;98651.66;5114647;28;20127;-95
2021/10/13 10:13:58;;;;;;;4.50;2.90;;;;;;;16.62;45.01;98652.41;5115110;28;20044;-95
2021/10/13 10:16:29;;;;;;;6.07;3.20;;;;;;;16.45;46.55;98657.81;5114409;28;20047;-95
2021/10/13 10:19:18;;;;;;;6.30;3.47;;;;;;;16.51;47.62;98672.75;5112950;28;20054;-94
2021/10/13 10:21:53;;;;;;;5.47;3.28;;;;;;;16.46;44.33;98672.97;5114152;28;20048;-95
2021/10/13 10:24:28;;;;;;;5.00;3.10;;;;;;;16.18;44.31;98654.78;5116922;28;20071;-95
2021/10/13 10:27:34;;;;;;;5.47;2.95;;;;;;;16.34;45.34;98661.06;5117764;28;20040;-96
2021/10/13 10:30:19;;;;;;;4.75;2.95;;;;;;;16.36;45.56;98658.31;5082821;28;20409;-94
2021/10/13 10:33:08;;;;;;;5.35;3.00;;;;;;;16.29;45.55;98660.44;5101251;28;20148;-92
2021/10/13 10:35:41;;;;;;;;;;;;;;;16.36;46.04;98690.50;5106832;28;20051;-95
2021/10/13 10:38:08;;;;;;;8.25;3.70;;;;;;;16.18;44.97;98662.81;5116398;28;19941;-93
2021/10/13 10:40:37;;;;;;;5.93;3.58;;;;;;;16.17;45.59;98683.38;5116499;28;20036;-96
2021/10/13 10:43:04;;;;;;;5.72;3.08;;;;;;;16.02;45.51;98660.03;5135061;28;20103;-96
2021/10/13 10:45:37;;;;;;;4.88;3.38;;;;;;;16.11;46.53;98659.59;5119581;27;20051;-95
2021/10/13 10:48:24;;;;;;;6.65;3.42;;;;;;;16.15;46.25;98666.50;5121325;28;20054;-95
2021/10/13 10:51:09;;;;;;;5.60;3.70;;;;;;;16.17;45.96;98686.06;5118882;28;20047;-96
2021/10/13 10:53:42;;;;;;;5.38;3.35;;;;;;;16.06;46.09;98666.13;5118670;28;20107;-96
2021/10/13 10:56:27;;;;;;;5.30;3.58;;;;;;;16.12;46.16;98663.13;5119401;28;20040;-96
2021/10/13 10:59:08;;;;;;;6.28;3.50;;;;;;;16.08;46.66;98665.09;5119733;28;20114;-96
2021/10/13 11:01:36;;;;;;;5.32;3.25;;;;;;;16.09;46.35;98652.53;5118221;28;20123;-95
2021/10/13 11:04:07;;;;;;;5.63;3.50;;;;;;;16.22;46.49;98654.53;5118883;28;20071;-95
2021/10/13 11:06:38;;;;;;;7.18;3.90;;;;;;;16.28;46.45;98656.00;5117885;28;20070;-96
2021/10/13 11:09:07;;;;;;;6.00;3.70;;;;;;;16.40;46.81;98673.31;5119192;28;20060;-95
2021/10/13 11:11:35;;;;;;;5.88;3.30;;;;;;;16.39;46.02;98674.22;5111092;28;20051;-95
2021/10/13 11:14:05;;;;;;;6.53;3.50;;;;;;;16.34;46.64;98663.75;5103136;28;20035;-95
2021/10/13 11:16:32;;;;;;;5.05;3.22;;;;;;;16.13;45.28;98654.13;5104974;28;20102;-95
2021/10/13 11:19:07;;;;;;;6.13;3.25;;;;;;;16.07;46.46;98641.91;5104906;28;20083;-96
2021/10/13 11:21:33;;;;;;;5.20;3.38;;;;;;;16.06;45.90;98639.28;5104219;28;20063;-95
2021/10/13 11:24:00;;;;;;;6.07;3.38;;;;;;;16.46;45.38;98664.94;5105120;28;20044;-96
2021/10/13 11:26:26;;;;;;;5.20;3.40;;;;;;;16.42;46.02;98644.56;5100033;28;20040;-94
2021/10/13 11:28:52;;;;;;;4.65;3.10;;;;;;;16.51;45.81;98657.50;5101707;28;20066;-96
2021/10/13 11:31:18;;;;;;;5.32;3.35;;;;;;;16.69;45.41;98650.25;5100738;28;20097;-94
2021/10/13 11:33:45;;;;;;;4.88;3.20;;;;;;;16.79;45.05;98645.28;5102751;28;20040;-96
2021/10/13 11:36:14;;;;;;;6.32;3.65;;;;;;;16.92;44.34;98638.31;5103213;28;20097;-96
2021/10/13 11:38:41;;;;;;;7.32;3.63;;;;;;;16.80;42.54;98633.59;5103591;28;20036;-96
2021/10/13 11:41:13;;;;;;;4.07;2.83;;;;;;;16.40;42.86;98633.91;5103819;28;20040;-96
2021/10/13 11:43:39;;;;;;;4.80;3.17;;;;;;;16.42;43.21;98620.41;5108605;28;20047;-94
2021/10/13 11:46:07;;;;;;;5.80;3.25;;;;;;;16.34;43.09;98628.84;5108182;28;20433;-96
2021/10/13 11:48:35;;;;;;;6.13;3.38;;;;;;;16.35;43.66;98635.09;5106406;28;20044;-95